Time;durP1;ratioP1;P1;durP2;ratioP2;P2;SDS_P1;SDS_P2;PMS_P1;PMS_P2;Temp;Humidity;BMP_temperature;BMP_pressure;BME280_temperature;BME280_humidity;BME280_pressure;Samples;Min_cycle;Max_cycle;Signal;HPM_P1;HPM_P2
2022/07/08 00:01:10;;;;;;;5.28;2.20;;;;;;;16.64;72.70;93556.53;2070494;69;20590;-74
2022/07/08 00:03:35;;;;;;;6.85;2.00;;;;;;;16.55;73.20;93555.38;2068107;69;20160;-74
2022/07/08 00:06:01;;;;;;;4.70;1.95;;;;;;;16.53;73.07;93543.88;2067724;69;20497;-73
2022/07/08 00:08:27;;;;;;;2.58;1.88;;;;;;;16.52;72.50;93542.41;2071302;69;20188;-74
2022/07/08 00:10:53;;;;;;;2.50;1.63;;;;;;;16.56;72.57;93558.97;2070992;69;20233;-74
2022/07/08 00:13:19;;;;;;;1.83;1.73;;;;;;;16.53;72.92;93561.69;2071128;69;20156;-74
2022/07/08 00:15:44;;;;;;;2.55;1.95;;;;;;;16.51;73.24;93558.00;2066774;69;20661;-73
2022/07/08 00:18:10;;;;;;;3.70;1.90;;;;;;;16.40;73.46;93568.13;2069840;69;20164;-75
2022/07/08 00:20:35;;;;;;;2.35;1.88;;;;;;;16.58;72.16;93561.88;2070677;69;20580;-75
2022/07/08 00:23:01;;;;;;;3.50;2.00;;;;;;;16.57;71.92;93563.25;2071209;69;20136;-74
2022/07/08 00:25:27;;;;;;;4.15;2.40;;;;;;;16.11;74.86;93557.31;2071014;69;20173;-75
2022/07/08 00:27:53;;;;;;;2.95;2.10;;;;;;;16.28;74.09;93556.09;2070882;69;20144;-75
2022/07/08 00:30:18;;;;;;;4.05;2.10;;;;;;;16.51;72.39;93555.91;2067762;69;20143;-75
2022/07/08 00:32:44;;;;;;;2.15;1.60;;;;;;;16.66;70.97;93554.53;2068363;69;20173;-74
2022/07/08 00:35:10;;;;;;;3.33;1.90;;;;;;;16.48;71.24;93545.78;2067769;69;20141;-74
2022/07/08 00:37:36;;;;;;;3.90;2.00;;;;;;;16.29;73.30;93546.19;2069776;69;20619;-75
2022/07/08 00:40:03;;;;;;;4.75;2.00;;;;;;;16.40;72.83;93547.47;2070991;69;20160;-73
2022/07/08 00:42:29;;;;;;;3.22;1.65;;;;;;;16.39;73.07;93551.66;2071058;69;20144;-74
2022/07/08 00:44:55;;;;;;;2.20;2.00;;;;;;;16.29;74.31;93551.88;2071182;69;20194;-75
2022/07/08 00:47:20;;;;;;;2.08;1.88;;;;;;;16.25;74.67;93552.41;2067417;69;20144;-75
2022/07/08 00:49:49;;;;;;;2.10;1.90;;;;;;;16.38;73.05;93561.56;2071000;69;20701;-74
2022/07/08 00:52:15;;;;;;;2.78;1.80;;;;;;;16.41;73.50;93555.38;2070886;69;20214;-75
2022/07/08 00:54:41;;;;;;;3.42;1.98;;;;;;;16.18;74.33;93555.56;2071248;69;20572;-75
2022/07/08 00:57:07;;;;;;;3.22;2.00;;;;;;;16.37;73.43;93560.84;2071373;69;20326;-75
2022/07/08 00:59:33;;;;;;;2.38;1.80;;;;;;;16.35;73.20;93554.28;2071495;69;20144;-74
2022/07/08 01:01:59;;;;;;;2.10;1.90;;;;;;;16.36;73.04;93548.00;2071960;69;20159;-74
2022/07/08 01:04:25;;;;;;;1.63;1.52;;;;;;;16.33;73.45;93549.25;2071683;69;20172;-74
2022/07/08 01:06:51;;;;;;;1.65;1.52;;;;;;;16.30;73.44;93549.78;2071576;69;20607;-74
2022/07/08 01:09:17;;;;;;;1.85;1.67;;;;;;;16.35;72.50;93552.19;2071694;69;20147;-74
2022/07/08 01:11:45;;;;;;;2.25;1.40;;;;;;;16.27;72.88;93548.94;2071577;69;20148;-73
2022/07/08 01:14:12;;;;;;;2.35;1.60;;;;;;;16.33;73.04;93549.25;2071802;69;20235;-74
2022/07/08 01:16:37;;;;;;;1.63;1.52;;;;;;;16.30;73.20;93547.66;2071715;69;20151;-73
2022/07/08 01:19:03;;;;;;;2.75;1.70;;;;;;;16.41;72.07;93554.63;2071260;69;20144;-74
2022/07/08 01:21:29;;;;;;;3.63;1.88;;;;;;;16.30;73.62;93552.59;2071240;69;20660;-73
2022/07/08 01:23:55;;;;;;;2.83;1.70;;;;;;;16.33;72.67;93546.41;2071537;69;20184;-73
2022/07/08 01:26:21;;;;;;;5.15;1.70;;;;;;;16.38;72.60;93539.56;2071512;69;20218;-74
2022/07/08 01:28:46;;;;;;;2.00;1.63;;;;;;;16.35;73.02;93543.66;2071323;69;20276;-75
2022/07/08 01:31:12;;;;;;;1.90;1.70;;;;;;;16.23;73.61;93540.19;2071319;69;20150;-75
2022/07/08 01:33:38;;;;;;;1.77;1.63;;;;;;;16.29;72.92;93540.50;2071400;69;20218;-74
2022/07/08 01:36:05;;;;;;;2.47;1.98;;;;;;;16.37;72.44;93545.91;2067940;69;20196;-74
2022/07/08 01:38:31;;;;;;;3.55;2.00;;;;;;;16.30;73.51;93549.78;2071679;69;20144;-74
2022/07/08 01:40:56;;;;;;;3.40;1.80;;;;;;;16.29;73.14;93554.72;2071102;69;20154;-73
2022/07/08 01:43:22;;;;;;;4.75;2.08;;;;;;;16.28;72.91;93556.09;2070503;69;20140;-74
2022/07/08 01:45:48;;;;;;;3.40;1.70;;;;;;;16.16;73.17;93559.00;2071279;69;20182;-75
2022/07/08 01:48:13;;;;;;;4.32;1.90;;;;;;;16.23;72.75;93557.25;2071247;69;20152;-75
2022/07/08 01:50:39;;;;;;;2.83;2.10;;;;;;;16.16;73.10;93558.28;2068299;69;20535;-75
2022/07/08 01:53:05;;;;;;;2.92;1.63;;;;;;;16.20;72.69;93564.91;2071178;69;20183;-74
2022/07/08 01:55:31;;;;;;;2.58;1.80;;;;;;;16.09;73.69;93565.75;2071330;69;20243;-74
2022/07/08 01:57:56;;;;;;;3.67;1.77;;;;;;;16.18;73.03;93564.81;2068273;69;20147;-74
2022/07/08 02:00:22;;;;;;;2.00;1.80;;;;;;;16.05;74.15;93571.19;2071006;69;20188;-74
2022/07/08 02:02:48;;;;;;;4.28;1.50;;;;;;;16.04;74.08;93572.56;2071478;69;20152;-74
2022/07/08 02:05:14;;;;;;;2.53;1.92;;;;;;;15.99;74.29;93568.03;2071321;69;20152;-75
2022/07/08 02:07:40;;;;;;;2.45;1.80;;;;;;;16.01;73.98;93573.81;2070868;69;20151;-74
2022/07/08 02:10:13;;;;;;;3.60;2.00;;;;;;;15.96;74.38;93564.34;2071451;69;20174;-75
2022/07/08 02:12:38;;;;;;;4.60;1.80;;;;;;;15.97;74.21;93556.56;2071661;69;20172;-75
2022/07/08 02:15:09;;;;;;;2.30;1.95;;;;;;;15.94;73.98;93552.88;2071448;69;20404;-74
2022/07/08 02:17:36;;;;;;;4.50;2.00;;;;;;;15.91;73.61;93556.97;2068045;69;20163;-74
2022/07/08 02:20:04;;;;;;;1.83;1.65;;;;;;;15.97;73.11;93556.56;2067298;69;20167;-74
2022/07/08 02:22:30;;;;;;;5.78;1.80;;;;;;;16.10;71.49;93555.13;2070137;69;20163;-76
2022/07/08 02:24:56;;;;;;;2.13;1.92;;;;;;;15.77;73.97;93559.03;2070941;69;20144;-75
2022/07/08 02:27:22;;;;;;;3.25;2.10;;;;;;;15.89;73.41;93562.50;2067968;69;20221;-75
2022/07/08 02:29:48;;;;;;;3.30;2.00;;;;;;;15.84;73.38;93562.91;2071096;69;20294;-74
2022/07/08 02:32:17;;;;;;;2.38;1.90;;;;;;;15.63;74.92;93561.78;2070550;69;20271;-75
2022/07/08 02:34:44;;;;;;;2.13;1.63;;;;;;;15.73;73.88;93561.63;2070831;69;20140;-75
2022/07/08 02:37:09;;;;;;;2.30;1.95;;;;;;;15.82;73.82;93557.88;2066575;69;20412;-73
2022/07/08 02:39:35;;;;;;;2.55;1.88;;;;;;;15.85;73.64;93559.47;2067584;69;20641;-74
2022/07/08 02:42:01;;;;;;;2.20;2.00;;;;;;;15.84;74.05;93563.66;2071243;69;20591;-73
2022/07/08 02:44:27;;;;;;;3.75;1.67;;;;;;;15.81;73.69;93562.09;2071945;69;20505;-73
2022/07/08 02:46:52;;;;;;;4.35;1.90;;;;;;;15.87;73.38;93565.25;2071127;69;20735;-73
2022/07/08 02:49:18;;;;;;;2.47;1.90;;;;;;;15.79;73.94;93555.56;2071241;69;20272;-73
2022/07/08 02:51:44;;;;;;;4.15;1.92;;;;;;;15.60;74.51;93571.53;2071109;69;20144;-74
2022/07/08 02:54:10;;;;;;;2.15;1.92;;;;;;;15.63;74.52;93575.97;2071170;69;20163;-75
2022/07/08 02:56:35;;;;;;;2.60;1.80;;;;;;;15.71;73.74;93579.31;2071313;69;20284;-74
2022/07/08 02:59:03;;;;;;;1.95;1.85;;;;;;;15.50;74.90;93582.31;2071327;69;20691;-73
2022/07/08 03:01:28;;;;;;;2.38;1.73;;;;;;;15.72;73.33;93589.28;2071422;69;20175;-74
2022/07/08 03:03:54;;;;;;;1.88;1.50;;;;;;;15.67;73.95;93584.00;2071297;69;20227;-73
2022/07/08 03:06:20;;;;;;;1.92;1.65;;;;;;;15.70;73.39;93588.44;2071587;69;20160;-73
2022/07/08 03:08:46;;;;;;;3.67;2.00;;;;;;;15.75;73.75;93595.81;2071254;69;20270;-74
2022/07/08 03:11:12;;;;;;;1.77;1.67;;;;;;;15.71;73.68;93589.91;2071479;69;20195;-74
2022/07/08 03:13:37;;;;;;;2.97;2.00;;;;;;;15.72;74.64;93608.44;2071302;69;20156;-74
2022/07/08 03:16:04;;;;;;;2.80;2.00;;;;;;;15.79;73.34;93604.53;2071255;69;20191;-73
2022/07/08 03:18:36;;;;;;;2.20;1.85;;;;;;;15.77;73.15;93606.56;2071343;69;20242;-75
2022/07/08 03:21:03;;;;;;;4.70;1.80;;;;;;;15.76;73.76;93605.81;2071312;69;20560;-75
2022/07/08 03:23:33;;;;;;;1.98;1.70;;;;;;;15.78;73.40;93613.69;2071818;69;20606;-75
2022/07/08 03:25:58;;;;;;;4.63;2.13;;;;;;;15.70;73.87;93625.31;2071694;69;20218;-74
2022/07/08 03:28:24;;;;;;;3.80;2.20;;;;;;;15.76;73.34;93620.00;2071615;69;20152;-75
2022/07/08 03:30:50;;;;;;;2.00;1.60;;;;;;;15.75;73.25;93627.03;2071787;69;20507;-75
2022/07/08 03:33:16;;;;;;;3.85;2.17;;;;;;;15.60;74.61;93621.88;2071569;69;20143;-75
2022/07/08 03:35:41;;;;;;;2.95;1.83;;;;;;;15.55;74.39;93637.94;2071549;69;20144;-75
2022/07/08 03:38:07;;;;;;;2.70;1.95;;;;;;;15.59;74.36;93641.03;2071476;69;20577;-75
2022/07/08 03:43:17;;;;;;;3.83;2.50;;;;;;;15.64;74.19;93637.06;2068294;69;20136;-75
2022/07/08 03:45:42;;;;;;;5.25;2.92;;;;;;;15.71;74.06;93646.66;2071574;69;20570;-75
2022/07/08 03:48:08;;;;;;;3.80;2.28;;;;;;;15.70;73.93;93645.19;2068306;69;20139;-75
2022/07/08 03:50:34;;;;;;;2.00;1.80;;;;;;;15.65;74.49;93638.56;2071529;69;20244;-75
2022/07/08 03:53:00;;;;;;;2.00;1.80;;;;;;;15.64;73.67;93639.19;2071375;69;20689;-76
2022/07/08 03:55:25;;;;;;;3.35;1.73;;;;;;;15.45;74.49;93640.94;2071166;69;20271;-75
2022/07/08 03:57:52;;;;;;;1.65;1.50;;;;;;;15.47;73.70;93646.72;2071548;69;20151;-75
2022/07/08 04:00:22;;;;;;;1.60;1.50;;;;;;;15.37;74.63;93643.31;2068163;69;20148;-75
2022/07/08 04:02:48;;;;;;;6.30;1.58;;;;;;;15.46;73.50;93644.53;2071703;69;20139;-75
2022/07/08 04:05:14;;;;;;;1.50;1.40;;;;;;;15.50;73.15;93642.66;2071232;69;20188;-75
2022/07/08 04:07:40;;;;;;;1.42;1.33;;;;;;;15.57;73.01;93648.66;2071278;69;20504;-76
2022/07/08 04:10:07;;;;;;;1.70;1.58;;;;;;;15.54;73.58;93645.00;2071473;69;20326;-75
2022/07/08 04:12:32;;;;;;;2.90;1.70;;;;;;;15.42;74.39;93656.38;2071335;69;20622;-75
2022/07/08 04:14:58;;;;;;;1.50;1.40;;;;;;;15.28;75.33;93655.53;2071532;69;20141;-75
2022/07/08 04:17:26;;;;;;;2.15;1.60;;;;;;;15.37;74.50;93660.34;2071219;69;20194;-75
2022/07/08 04:19:51;;;;;;;2.78;1.42;;;;;;;15.52;73.40;93659.06;2071564;69;20601;-75
2022/07/08 04:22:17;;;;;;;2.80;1.40;;;;;;;15.31;74.76;93659.25;2071329;69;20164;-75
2022/07/08 04:24:42;;;;;;;2.75;1.65;;;;;;;15.33;74.54;93665.03;2071844;69;20154;-75
2022/07/08 04:27:08;;;;;;;2.10;1.48;;;;;;;15.47;74.09;93671.53;2068389;69;20255;-75
2022/07/08 04:29:34;;;;;;;1.73;1.50;;;;;;;15.43;74.23;93668.44;2071964;69;20225;-75
2022/07/08 04:31:59;;;;;;;2.13;1.70;;;;;;;15.39;74.23;93677.47;2071918;69;20148;-75
2022/07/08 04:34:25;;;;;;;2.90;1.60;;;;;;;15.37;74.52;93680.19;2072097;69;20602;-76
2022/07/08 04:36:51;;;;;;;1.70;1.60;;;;;;;15.44;73.94;93684.88;2071874;69;20160;-75
2022/07/08 04:39:16;;;;;;;1.73;1.55;;;;;;;15.40;73.64;93690.31;2071962;69;20179;-75
2022/07/08 04:41:42;;;;;;;1.88;1.70;;;;;;;15.52;73.47;93685.31;2071942;69;20148;-75
2022/07/08 04:44:08;;;;;;;3.08;1.60;;;;;;;15.47;74.60;93683.63;2071844;69;20149;-75
2022/07/08 04:46:33;;;;;;;3.63;1.77;;;;;;;15.52;74.36;93688.16;2071992;69;20243;-75
2022/07/08 04:48:59;;;;;;;2.60;1.70;;;;;;;15.42;74.61;93698.19;2072073;69;20147;-75
2022/07/08 04:51:24;;;;;;;3.72;1.60;;;;;;;15.39;75.66;93694.47;2071754;69;20295;-74
2022/07/08 04:53:50;;;;;;;3.17;1.67;;;;;;;15.54;75.04;93696.06;2072119;69;20192;-75
2022/07/08 04:56:16;;;;;;;1.90;1.65;;;;;;;15.58;74.68;93698.38;2071756;69;20139;-75
2022/07/08 04:58:41;;;;;;;1.88;1.60;;;;;;;15.68;74.15;93702.59;2068582;69;20495;-75
2022/07/08 05:01:07;;;;;;;3.35;1.70;;;;;;;15.66;74.23;93705.31;2071757;69;20148;-74
2022/07/08 05:03:40;;;;;;;4.05;1.70;;;;;;;15.67;73.88;93703.22;2071677;69;20192;-75
2022/07/08 05:06:06;;;;;;;1.75;1.65;;;;;;;15.75;74.38;93707.25;2071294;69;20650;-74
2022/07/08 05:08:31;;;;;;;4.35;2.17;;;;;;;15.68;75.81;93710.38;2071916;69;20153;-75
2022/07/08 05:10:57;;;;;;;2.58;1.90;;;;;;;15.75;75.38;93701.56;2071884;69;20144;-75
2022/07/08 05:13:23;;;;;;;2.88;2.00;;;;;;;15.67;75.61;93703.22;2071950;69;20221;-75
2022/07/08 05:15:48;;;;;;;2.55;1.83;;;;;;;15.73;75.45;93703.56;2071943;69;20144;-75
2022/07/08 05:18:14;;;;;;;3.70;2.50;;;;;;;15.94;72.71;93705.47;2071311;69;20135;-74
2022/07/08 05:20:39;;;;;;;2.38;2.17;;;;;;;15.72;73.40;93697.16;2071873;69;20155;-74
2022/07/08 05:23:05;;;;;;;3.85;2.42;;;;;;;15.43;75.62;93694.72;2071235;69;20250;-73
2022/07/08 05:25:32;;;;;;;2.90;2.60;;;;;;;15.56;75.12;93707.53;2071230;69;20143;-74
2022/07/08 05:27:58;;;;;;;2.50;2.30;;;;;;;15.86;73.72;93705.75;2071056;69;20592;-75
2022/07/08 05:30:23;;;;;;;2.90;2.42;;;;;;;15.87;74.94;93707.22;2070443;69;20133;-74
2022/07/08 05:32:49;;;;;;;4.10;2.60;;;;;;;15.84;73.75;93707.72;2071677;69;20140;-74
2022/07/08 05:35:18;;;;;;;3.80;2.40;;;;;;;15.97;71.81;93707.06;2071821;69;20243;-73
2022/07/08 05:37:45;;;;;;;5.20;2.58;;;;;;;15.99;72.23;93710.78;2068266;69;20144;-75
2022/07/08 05:40:17;;;;;;;3.58;2.10;;;;;;;16.06;71.56;93709.00;2070880;69;20516;-73
2022/07/08 05:42:44;;;;;;;3.53;1.92;;;;;;;16.10;71.10;93709.22;2067552;69;20621;-74
2022/07/08 05:45:11;;;;;;;3.80;2.30;;;;;;;15.85;72.63;93709.19;2071697;69;20186;-75
2022/07/08 05:47:37;;;;;;;2.08;1.77;;;;;;;15.92;72.54;93714.63;2071035;69;20144;-75
2022/07/08 05:50:04;;;;;;;7.13;1.92;;;;;;;16.10;72.37;93720.59;2070878;69;20179;-74
2022/07/08 05:52:29;;;;;;;2.30;2.10;;;;;;;16.16;71.00;93708.81;2071386;69;20148;-74
2022/07/08 05:54:55;;;;;;;2.40;2.17;;;;;;;16.17;72.74;93711.06;2071629;69;20644;-73
2022/07/08 05:57:20;;;;;;;3.13;2.10;;;;;;;16.18;71.55;93711.78;2071368;69;20133;-74
2022/07/08 05:59:46;;;;;;;2.63;2.10;;;;;;;16.23;72.89;93710.66;2071268;69;20188;-74
2022/07/08 06:02:12;;;;;;;2.45;1.90;;;;;;;16.02;72.29;93718.03;2071850;69;20176;-75
2022/07/08 06:04:40;;;;;;;3.08;2.03;;;;;;;16.16;71.69;93712.41;2071394;69;20151;-74
2022/07/08 06:07:07;;;;;;;1.73;1.63;;;;;;;16.36;71.75;93715.66;2068220;69;20171;-74
2022/07/08 06:09:33;;;;;;;3.85;2.03;;;;;;;16.51;72.43;93706.53;2071509;69;20331;-75
2022/07/08 06:11:59;;;;;;;4.85;1.92;;;;;;;16.56;73.70;93709.59;2071628;69;20168;-74
2022/07/08 06:14:25;;;;;;;4.35;2.10;;;;;;;16.71;72.94;93709.75;2071201;69;20191;-74
2022/07/08 06:16:51;;;;;;;4.28;1.95;;;;;;;16.85;71.00;93706.22;2071638;69;20191;-74
2022/07/08 06:19:18;;;;;;;3.40;2.00;;;;;;;16.89;71.38;93712.84;2070582;69;20155;-75
2022/07/08 06:21:44;;;;;;;2.03;1.83;;;;;;;17.03;68.22;93710.75;2071709;69;20342;-74
2022/07/08 06:24:10;;;;;;;1.92;1.83;;;;;;;17.11;69.66;93707.63;2071820;69;20616;-74
2022/07/08 06:26:36;;;;;;;2.28;2.08;;;;;;;17.00;72.27;93712.03;2072030;69;20168;-74
2022/07/08 06:29:03;;;;;;;2.42;2.20;;;;;;;17.21;69.64;93708.16;2067260;69;20592;-74
2022/07/08 06:31:29;;;;;;;3.28;2.40;;;;;;;17.18;69.87;93702.97;2071662;69;20175;-74
2022/07/08 06:33:58;;;;;;;3.25;2.40;;;;;;;17.13;69.63;93715.50;2071697;69;20577;-73
2022/07/08 06:36:25;;;;;;;3.10;2.58;;;;;;;16.91;69.78;93704.44;2071414;69;20148;-74
2022/07/08 06:38:52;;;;;;;3.45;2.20;;;;;;;17.15;70.02;93707.09;2070034;69;20245;-75
2022/07/08 06:41:19;;;;;;;3.35;2.20;;;;;;;17.08;70.46;93708.88;2066805;69;20183;-74
2022/07/08 06:43:46;;;;;;;2.20;2.00;;;;;;;16.99;69.90;93709.81;2071584;69;20271;-76
2022/07/08 06:46:12;;;;;;;2.83;2.33;;;;;;;17.09;70.42;93706.75;2071723;69;20152;-75
2022/07/08 06:48:39;;;;;;;3.10;2.50;;;;;;;16.72;71.86;93716.19;2071243;69;20152;-74
2022/07/08 06:51:05;;;;;;;3.20;2.90;;;;;;;17.10;71.48;93722.47;2071713;69;20235;-75
2022/07/08 06:56:17;;;;;;;2.80;2.60;;;;;;;16.98;71.87;93723.31;2065095;69;20171;-77
2022/07/08 06:58:44;;;;;;;2.97;2.67;;;;;;;17.47;68.26;93722.28;2070321;69;20587;-75
2022/07/08 07:01:10;;;;;;;2.60;2.40;;;;;;;17.69;68.40;93725.53;2069898;69;20148;-75
2022/07/08 07:03:39;;;;;;;3.72;2.30;;;;;;;17.78;68.34;93724.59;2068122;69;20188;-75
2022/07/08 07:06:06;;;;;;;5.80;2.78;;;;;;;17.71;67.57;93726.34;2068110;69;20151;-75
2022/07/08 07:08:31;;;;;;;5.05;2.10;;;;;;;17.80;67.37;93726.81;2068304;69;20140;-75
2022/07/08 07:10:57;;;;;;;2.60;2.40;;;;;;;17.78;67.71;93722.47;2069183;69;20150;-75
2022/07/08 07:13:23;;;;;;;2.80;2.45;;;;;;;17.60;67.93;93720.78;2067437;69;20520;-76
2022/07/08 07:15:48;;;;;;;4.18;2.50;;;;;;;17.81;67.63;93717.63;2070276;69;20859;-76
2022/07/08 07:18:14;;;;;;;2.85;2.30;;;;;;;17.91;66.52;93718.13;2066896;69;20600;-77
2022/07/08 07:20:39;;;;;;;3.45;2.60;;;;;;;17.40;67.50;93714.78;2070578;69;20152;-75
2022/07/08 07:23:05;;;;;;;3.47;2.63;;;;;;;17.65;67.69;93720.38;2075168;69;20172;-74
2022/07/08 07:25:31;;;;;;;2.95;2.45;;;;;;;17.64;68.01;93724.59;2067828;69;20172;-75
2022/07/08 07:27:56;;;;;;;2.78;2.47;;;;;;;17.61;67.73;93725.13;2068254;69;20184;-74
2022/07/08 07:30:24;;;;;;;3.15;2.47;;;;;;;17.95;66.17;93720.44;2071331;69;20156;-76
2022/07/08 07:32:52;;;;;;;4.50;2.50;;;;;;;17.96;66.77;93719.81;2071777;69;20693;-76
2022/07/08 07:35:18;;;;;;;7.05;2.30;;;;;;;18.07;66.02;93723.16;2072135;69;20599;-74
2022/07/08 07:37:44;;;;;;;2.50;2.17;;;;;;;17.93;65.94;93726.78;2068806;69;20133;-74
2022/07/08 07:40:10;;;;;;;4.93;2.50;;;;;;;18.09;64.52;93723.25;2069104;69;20132;-74
2022/07/08 07:42:38;;;;;;;3.22;2.35;;;;;;;18.16;65.22;93725.75;2072078;69;20255;-74
2022/07/08 07:45:05;;;;;;;3.20;2.05;;;;;;;18.29;65.42;93718.53;2072169;69;20180;-74
2022/07/08 07:47:31;;;;;;;5.60;2.85;;;;;;;18.20;65.15;93720.25;2071802;69;20159;-74
2022/07/08 07:49:56;;;;;;;3.40;2.40;;;;;;;18.21;65.15;93721.72;2067960;69;20160;-74
2022/07/08 07:52:22;;;;;;;4.53;2.13;;;;;;;18.27;64.75;93715.59;2067942;69;20136;-74
2022/07/08 07:54:49;;;;;;;2.55;2.10;;;;;;;18.37;68.09;93716.09;2071887;69;20176;-74
2022/07/08 07:57:15;;;;;;;4.30;2.50;;;;;;;18.31;69.26;93712.19;2068268;69;20152;-74
2022/07/08 07:59:41;;;;;;;3.70;2.22;;;;;;;18.51;67.51;93716.78;2068484;69;20221;-74
2022/07/08 08:02:08;;;;;;;4.22;2.03;;;;;;;18.64;67.17;93706.66;2072034;69;20223;-76
2022/07/08 08:04:34;;;;;;;2.50;2.10;;;;;;;18.76;67.31;93707.25;2072136;69;20132;-75
2022/07/08 08:07:01;;;;;;;2.78;2.15;;;;;;;18.89;68.47;93707.81;2072046;69;20144;-74
2022/07/08 08:09:27;;;;;;;3.88;2.15;;;;;;;18.88;66.92;93703.50;2072179;69;20136;-74
2022/07/08 08:11:53;;;;;;;2.17;1.70;;;;;;;19.04;65.75;93698.53;2068695;69;20152;-75
2022/07/08 08:14:19;;;;;;;2.22;2.00;;;;;;;19.26;67.45;93702.38;2068348;69;20148;-74
2022/07/08 08:16:45;;;;;;;2.67;2.10;;;;;;;19.41;67.65;93700.88;2072037;69;20179;-75
2022/07/08 08:19:10;;;;;;;3.13;1.60;;;;;;;19.76;67.59;93705.28;2072016;69;20588;-75
2022/07/08 08:21:36;;;;;;;2.15;1.60;;;;;;;19.97;63.43;93699.00;2071931;69;20163;-74
2022/07/08 08:24:03;;;;;;;1.90;1.48;;;;;;;20.19;55.67;93698.47;2068685;69;20630;-75
2022/07/08 08:26:29;;;;;;;3.80;1.60;;;;;;;20.48;58.84;93706.09;2072040;69;20213;-75
2022/07/08 08:28:54;;;;;;;1.92;1.50;;;;;;;20.82;59.22;93703.84;2072155;69;20168;-76
2022/07/08 08:31:23;;;;;;;2.75;1.65;;;;;;;21.25;59.91;93703.31;2071795;69;20144;-76
2022/07/08 08:33:49;;;;;;;3.55;1.63;;;;;;;21.60;58.13;93709.63;2071981;69;20155;-76
2022/07/08 08:36:14;;;;;;;1.40;1.17;;;;;;;21.26;45.84;93701.22;2071916;69;20136;-76
2022/07/08 08:38:40;;;;;;;1.85;1.30;;;;;;;21.66;52.30;93707.69;2071943;69;20247;-76
2022/07/08 08:41:06;;;;;;;1.92;1.33;;;;;;;21.99;48.32;93708.81;2072056;69;20201;-76
2022/07/08 08:43:37;;;;;;;1.65;1.50;;;;;;;21.95;47.38;93706.56;2071964;69;20140;-75
2022/07/08 08:46:02;;;;;;;2.50;1.20;;;;;;;22.02;49.33;93708.22;2072010;69;20171;-76
2022/07/08 08:48:38;;;;;;;2.47;1.02;;;;;;;21.68;49.54;93716.38;2072089;69;20239;-74
2022/07/08 08:51:07;;;;;;;1.73;1.35;;;;;;;21.78;51.91;93713.13;2071864;69;20179;-74
2022/07/08 08:53:54;;;;;;;1.77;1.15;;;;;;;21.73;51.35;93717.25;2071858;69;20585;-76
2022/07/08 08:56:20;;;;;;;3.17;1.25;;;;;;;21.71;51.30;93717.91;2071814;69;20508;-75
2022/07/08 08:58:47;;;;;;;3.80;1.30;;;;;;;21.57;51.71;93715.25;2071868;69;20188;-75
2022/07/08 09:01:18;;;;;;;2.67;1.30;;;;;;;22.15;53.13;93720.16;2071859;69;20661;-75
2022/07/08 09:03:44;;;;;;;2.80;1.35;;;;;;;22.21;51.92;93712.47;2068599;69;20598;-75
2022/07/08 09:06:12;;;;;;;1.75;1.30;;;;;;;21.92;50.30;93719.34;2071862;69;20156;-75
2022/07/08 09:08:39;;;;;;;2.28;1.10;;;;;;;22.62;50.86;93725.28;2068768;69;20132;-76
2022/07/08 09:11:06;;;;;;;1.30;1.20;;;;;;;23.15;49.25;93711.88;2071799;69;20140;-76
2022/07/08 09:13:32;;;;;;;1.95;1.30;;;;;;;23.07;43.29;93712.34;2071941;69;20150;-76
2022/07/08 09:15:58;;;;;;;3.28;1.30;;;;;;;22.82;42.58;93713.72;2071941;69;20594;-76
2022/07/08 09:18:32;;;;;;;2.33;1.00;;;;;;;23.66;44.74;93711.22;2071914;69;20187;-76
2022/07/08 09:20:59;;;;;;;1.27;1.10;;;;;;;23.65;40.30;93715.50;2071951;69;20140;-76
2022/07/08 09:23:32;;;;;;;1.50;1.00;;;;;;;23.11;36.41;93720.34;2071959;69;20600;-75
2022/07/08 09:26:02;;;;;;;1.77;0.85;;;;;;;22.81;35.03;93715.09;2065774;69;20524;-77
2022/07/08 09:28:57;;;;;;;1.27;1.00;;;;;;;23.16;37.59;93719.81;2072076;69;20140;-76
2022/07/08 09:31:23;;;;;;;0.90;0.90;;;;;;;23.23;32.32;93723.56;2071208;69;20160;-76
2022/07/08 09:33:53;;;;;;;0.85;0.85;;;;;;;23.26;33.60;93717.22;2071842;69;20147;-78
2022/07/08 09:36:20;;;;;;;1.13;0.90;;;;;;;23.47;34.98;93721.44;2071789;69;20160;-77
2022/07/08 09:38:47;;;;;;;2.67;0.82;;;;;;;23.38;37.85;93719.00;2071955;69;20592;-77
2022/07/08 09:41:32;;;;;;;3.25;0.90;;;;;;;23.82;35.43;93717.44;2071975;69;20175;-77
2022/07/08 09:43:58;;;;;;;1.65;0.82;;;;;;;24.33;36.68;93721.66;2072082;69;20144;-77
2022/07/08 09:46:35;;;;;;;1.20;0.90;;;;;;;23.44;32.48;93719.91;2068555;69;20527;-78
2022/07/08 09:49:04;;;;;;;1.48;0.93;;;;;;;24.26;32.82;93713.53;2071718;69;20190;-78
2022/07/08 09:51:32;;;;;;;1.67;0.80;;;;;;;23.86;31.08;93713.19;2068465;69;20555;-78
2022/07/08 09:54:11;;;;;;;1.33;0.70;;;;;;;22.41;32.12;93726.78;2071865;69;20174;-78
2022/07/08 09:56:36;;;;;;;0.98;0.80;;;;;;;24.04;32.77;93714.41;2071721;69;20164;-79
2022/07/08 09:59:02;;;;;;;1.58;0.90;;;;;;;22.90;32.35;93713.97;2071521;69;20591;-78
2022/07/08 10:01:30;;;;;;;4.53;0.90;;;;;;;23.20;31.13;93725.69;2068260;69;20136;-78
2022/07/08 10:03:56;;;;;;;1.27;0.82;;;;;;;23.74;32.86;93714.31;2065640;69;20546;-78
2022/07/08 10:06:22;;;;;;;1.02;0.80;;;;;;;23.49;32.83;93717.88;2071689;69;20144;-78
2022/07/08 10:08:48;;;;;;;1.15;0.80;;;;;;;22.57;32.50;93715.06;2068610;69;20140;-79
2022/07/08 10:11:14;;;;;;;1.13;0.80;;;;;;;23.96;33.62;93711.31;2068485;69;20223;-78
2022/07/08 10:13:40;;;;;;;1.15;0.90;;;;;;;23.92;30.62;93705.47;2068625;69;20136;-80
2022/07/08 10:16:10;;;;;;;1.45;0.90;;;;;;;24.41;30.32;93720.41;2071873;69;20171;-78
2022/07/08 10:18:40;;;;;;;2.15;0.90;;;;;;;24.46;29.04;93713.31;2071969;69;20610;-79
2022/07/08 10:21:10;;;;;;;1.10;0.80;;;;;;;24.99;30.09;93715.31;2072006;69;20144;-76
2022/07/08 10:23:44;;;;;;;0.80;0.60;;;;;;;25.47;29.50;93717.09;2071720;69;20144;-76
2022/07/08 10:26:11;;;;;;;1.73;0.70;;;;;;;26.20;30.80;93721.47;2071905;69;20659;-77
2022/07/08 10:28:39;;;;;;;1.80;0.73;;;;;;;26.07;29.52;93722.66;2072055;69;20179;-79
2022/07/08 10:31:25;;;;;;;1.30;0.65;;;;;;;27.18;28.19;93728.19;2071868;69;20180;-78
2022/07/08 10:34:02;;;;;;;0.63;0.63;;;;;;;26.95;26.23;93724.22;2070424;69;20168;-79
2022/07/08 10:36:28;;;;;;;2.15;0.70;;;;;;;25.84;27.99;93718.59;2067705;69;20195;-76
2022/07/08 10:38:57;;;;;;;0.85;0.60;;;;;;;26.50;27.42;93721.31;2071048;69;20235;-76
2022/07/08 10:41:26;;;;;;;0.70;0.63;;;;;;;26.12;26.65;93715.56;2071264;69;20605;-80
2022/07/08 10:44:05;;;;;;;1.83;0.65;;;;;;;26.02;25.67;93710.31;2070771;69;20235;-77
2022/07/08 10:46:31;;;;;;;1.95;0.75;;;;;;;25.21;27.41;93715.13;2071019;69;20161;-78
2022/07/08 10:49:02;;;;;;;2.90;0.80;;;;;;;25.25;26.61;93714.50;2071279;69;20607;-78
2022/07/08 10:51:31;;;;;;;0.75;0.60;;;;;;;26.08;25.98;93716.22;2066758;69;20168;-78
2022/07/08 10:53:59;;;;;;;0.93;0.70;;;;;;;27.08;25.91;93720.84;2070007;69;20919;-77
2022/07/08 10:56:47;;;;;;;0.95;0.60;;;;;;;29.31;25.31;93720.38;2067808;69;20140;-78
2022/07/08 10:59:26;;;;;;;0.52;0.52;;;;;;;29.69;24.10;93717.00;2071043;69;20164;-78
2022/07/08 11:02:05;;;;;;;1.13;0.60;;;;;;;30.35;22.32;93712.16;2071163;69;20153;-78
2022/07/08 11:04:34;;;;;;;1.70;0.77;;;;;;;30.20;22.79;93707.78;2071506;69;20153;-77
2022/07/08 11:07:15;;;;;;;0.55;0.52;;;;;;;32.87;19.80;93719.63;2071533;69;20147;-77
2022/07/08 11:09:42;;;;;;;0.93;0.60;;;;;;;35.54;18.67;93723.72;2071436;69;20133;-77
2022/07/08 11:12:13;;;;;;;1.67;0.60;;;;;;;36.24;16.96;93717.97;2068217;69;20143;-77
2022/07/08 11:14:45;;;;;;;0.75;0.60;;;;;;;35.78;17.46;93722.53;2071463;69;20144;-77
2022/07/08 11:17:19;;;;;;;0.75;0.50;;;;;;;33.88;17.31;93720.19;2071666;69;20152;-77
2022/07/08 11:19:46;;;;;;;0.50;0.50;;;;;;;37.28;14.94;93730.34;2071463;69;20156;-77
2022/07/08 11:22:13;;;;;;;1.05;0.60;;;;;;;37.98;14.52;93720.50;2071525;69;20172;-78
2022/07/08 11:24:40;;;;;;;1.33;0.57;;;;;;;37.50;14.64;93726.16;2068493;69;20138;-78
2022/07/08 11:27:08;;;;;;;0.85;0.50;;;;;;;39.18;15.31;93721.44;2071687;69;20168;-78
2022/07/08 11:29:34;;;;;;;1.27;0.52;;;;;;;42.92;14.15;93725.28;2071308;69;20194;-77
2022/07/08 11:32:02;;;;;;;1.17;0.60;;;;;;;41.65;12.75;93721.94;2071706;69;20155;-77
2022/07/08 11:34:28;;;;;;;0.73;0.47;;;;;;;40.17;13.34;93725.47;2071619;69;20694;-79
2022/07/08 11:37:01;;;;;;;0.82;0.60;;;;;;;39.37;13.23;93720.06;2071636;69;20166;-76
2022/07/08 11:39:28;;;;;;;0.50;0.40;;;;;;;41.06;12.74;93718.47;2071758;69;20671;-75